Time;durP1;ratioP1;P1;durP2;ratioP2;P2;SDS_P1;SDS_P2;PMS_P1;PMS_P2;Temp;Humidity;BMP_temperature;BMP_pressure;BME280_temperature;BME280_humidity;BME280_pressure;Samples;Min_cycle;Max_cycle;Signal;HPM_P1;HPM_P2
2022/02/12 00:02:22;;;;;;;8.13;4.53;;;;;;;5.04;50.62;96847.72;5053337;28;20055;-67
2022/02/12 00:04:48;;;;;;;11.38;5.43;;;;;;;5.07;50.42;96853.34;5062752;28;20024;-68
2022/02/12 00:07:13;;;;;;;8.77;4.97;;;;;;;5.26;50.60;96908.66;5057530;28;20028;-67
2022/02/12 00:09:38;;;;;;;6.30;4.60;;;;;;;5.14;50.46;96880.41;5053054;28;20035;-68
2022/02/12 00:12:04;;;;;;;8.93;4.57;;;;;;;5.11;50.17;96883.47;5053730;28;20100;-68
2022/02/12 00:14:30;;;;;;;9.18;4.75;;;;;;;5.15;50.81;96886.47;5054099;28;20029;-68
2022/02/12 00:16:56;;;;;;;13.10;5.65;;;;;;;4.45;50.89;96781.63;5054013;28;20036;-69
2022/02/12 00:19:22;;;;;;;6.72;5.00;;;;;;;4.65;50.77;96821.69;5058777;28;20433;-68
2022/02/12 00:21:47;;;;;;;9.43;5.53;;;;;;;5.07;50.92;96886.81;5061378;28;20037;-68
2022/02/12 00:24:15;;;;;;;9.35;5.40;;;;;;;5.01;50.42;96888.50;5053684;28;20501;-67
2022/02/12 00:26:40;;;;;;;9.55;5.78;;;;;;;4.79;50.97;96858.41;5053387;28;20037;-68
2022/02/12 00:29:07;;;;;;;11.00;5.50;;;;;;;4.98;51.34;96910.06;5052832;28;20409;-68
2022/02/12 00:31:32;;;;;;;9.32;5.93;;;;;;;4.79;51.37;96864.50;5052978;28;20381;-68
2022/02/12 00:33:58;;;;;;;11.85;6.00;;;;;;;4.90;51.80;96899.84;5057194;28;20033;-68
2022/02/12 00:36:24;;;;;;;6.95;5.03;;;;;;;4.69;51.98;96846.56;5035046;28;20037;-68
2022/02/12 00:38:51;;;;;;;8.63;5.90;;;;;;;4.91;51.73;96861.88;5052669;28;20025;-68
2022/02/12 00:41:16;;;;;;;12.73;5.93;;;;;;;4.93;51.63;96870.38;5034681;28;20029;-68
2022/02/12 00:43:41;;;;;;;7.05;6.13;;;;;;;4.67;51.68;96835.47;5052731;28;20029;-68
2022/02/12 00:46:07;;;;;;;9.80;5.80;;;;;;;4.79;51.29;96850.50;5052607;28;20074;-68
2022/02/12 00:48:32;;;;;;;8.02;5.82;;;;;;;4.79;51.55;96877.66;5056024;28;20040;-68
2022/02/12 00:50:59;;;;;;;8.25;5.78;;;;;;;4.89;52.01;96866.59;5060322;28;20738;-68
2022/02/12 00:53:29;;;;;;;6.57;5.57;;;;;;;4.87;51.77;96868.66;5052927;28;20025;-67
2022/02/12 00:55:55;;;;;;;10.98;6.32;;;;;;;4.52;51.97;96819.25;5034703;28;20025;-68
2022/02/12 00:58:20;;;;;;;10.70;6.80;;;;;;;4.85;51.97;96882.03;5052099;28;20051;-68
2022/02/12 01:00:46;;;;;;;10.77;6.78;;;;;;;4.78;51.83;96857.63;5051056;28;20695;-68
2022/02/12 01:03:13;;;;;;;11.02;6.82;;;;;;;4.05;51.68;96741.91;5054518;28;20036;-68
2022/02/12 01:05:39;;;;;;;8.90;6.00;;;;;;;4.45;51.74;96813.25;5052731;28;20362;-68
2022/02/12 01:08:05;;;;;;;8.95;6.78;;;;;;;4.80;51.97;96858.19;5052175;28;20119;-68
2022/02/12 01:10:32;;;;;;;11.70;6.45;;;;;;;4.12;52.01;96753.94;5051722;28;20111;-68
2022/02/12 01:12:58;;;;;;;12.93;6.55;;;;;;;4.61;51.94;96833.72;5052321;28;20049;-68
2022/02/12 01:15:24;;;;;;;10.48;6.93;;;;;;;4.44;51.98;96830.09;5034527;28;20529;-68
2022/02/12 01:17:49;;;;;;;11.38;7.22;;;;;;;4.60;52.28;96855.03;5052206;28;20059;-69
2022/02/12 01:20:15;;;;;;;8.75;6.20;;;;;;;4.64;51.99;96859.63;5054237;28;20028;-68
2022/02/12 01:22:40;;;;;;;10.35;6.85;;;;;;;4.73;52.06;96878.56;5052017;28;20032;-68
2022/02/12 01:25:08;;;;;;;14.40;6.90;;;;;;;4.69;52.53;96872.94;5052101;28;20025;-67
2022/02/12 01:27:34;;;;;;;13.10;6.88;;;;;;;4.36;52.31;96814.63;5051988;28;20029;-68
2022/02/12 01:29:59;;;;;;;14.52;7.55;;;;;;;4.56;52.27;96846.78;5033430;28;20087;-69
2022/02/12 01:32:26;;;;;;;10.63;7.82;;;;;;;4.46;52.18;96825.44;5051538;28;20040;-67
2022/02/12 01:34:51;;;;;;;12.15;7.82;;;;;;;4.37;51.94;96824.13;5053709;28;20462;-68
2022/02/12 01:37:17;;;;;;;10.35;7.70;;;;;;;4.31;52.29;96825.03;5051493;28;20083;-68
2022/02/12 01:39:42;;;;;;;9.32;7.40;;;;;;;4.42;52.16;96845.34;5051353;28;20654;-67
2022/02/12 01:42:08;;;;;;;15.80;7.38;;;;;;;4.22;52.13;96800.00;5051513;28;20167;-68
2022/02/12 01:44:37;;;;;;;12.25;8.35;;;;;;;4.35;52.23;96820.91;5051444;28;20493;-68
2022/02/12 01:47:04;;;;;;;12.80;6.97;;;;;;;4.33;52.45;96836.13;5051290;28;20079;-68
2022/02/12 01:49:30;;;;;;;9.82;7.70;;;;;;;4.33;52.17;96829.03;5052345;28;20028;-68
2022/02/12 01:51:57;;;;;;;12.32;7.47;;;;;;;4.11;52.37;96786.56;5051325;28;20025;-67
2022/02/12 01:54:24;;;;;;;9.85;7.85;;;;;;;4.48;52.18;96843.63;5051394;28;20031;-68
2022/02/12 01:56:50;;;;;;;12.18;8.95;;;;;;;4.24;52.44;96808.47;5051102;28;20041;-68
2022/02/12 01:59:16;;;;;;;13.20;8.40;;;;;;;4.14;52.64;96780.03;5050897;28;20410;-68
2022/02/12 02:01:41;;;;;;;12.10;7.82;;;;;;;4.21;52.64;96795.78;5050957;28;20029;-68
2022/02/12 02:04:07;;;;;;;16.15;8.00;;;;;;;4.19;52.37;96782.81;5034268;28;20535;-68
2022/02/12 02:06:32;;;;;;;13.60;7.93;;;;;;;3.68;52.50;96707.72;5050813;28;20025;-68
2022/02/12 02:09:03;;;;;;;11.57;7.68;;;;;;;4.08;52.89;96760.66;5050579;28;20037;-69
2022/02/12 02:11:30;;;;;;;12.90;8.20;;;;;;;4.34;53.15;96795.59;5032866;28;20047;-70
2022/02/12 02:13:55;;;;;;;11.68;8.15;;;;;;;4.42;52.55;96819.00;5050928;28;20400;-69
2022/02/12 02:16:20;;;;;;;11.38;8.05;;;;;;;4.35;52.69;96800.66;5050944;28;20040;-69
2022/02/12 02:18:46;;;;;;;12.38;7.70;;;;;;;4.32;52.60;96792.38;5050977;28;20032;-69
2022/02/12 02:21:14;;;;;;;12.77;8.88;;;;;;;4.33;52.66;96794.78;5050453;28;20036;-69
2022/02/12 02:23:39;;;;;;;12.98;8.60;;;;;;;4.23;52.78;96781.34;5050876;28;20029;-68
2022/02/12 02:26:05;;;;;;;11.32;8.13;;;;;;;4.41;52.64;96804.22;5050705;28;20035;-68
2022/02/12 02:28:31;;;;;;;17.33;9.00;;;;;;;4.20;52.97;96770.44;5050467;28;20097;-69
2022/02/12 02:30:57;;;;;;;13.73;8.30;;;;;;;4.20;52.69;96770.44;5050441;28;20112;-68
2022/02/12 02:33:23;;;;;;;17.38;8.68;;;;;;;4.25;52.68;96789.00;5051165;28;20029;-68
2022/02/12 02:35:48;;;;;;;15.73;8.88;;;;;;;4.05;53.15;96787.47;5058614;28;20029;-69
2022/02/12 02:38:15;;;;;;;13.15;8.18;;;;;;;4.23;52.83;96817.41;5051501;28;20056;-69
2022/02/12 02:40:42;;;;;;;15.75;8.50;;;;;;;3.99;52.92;96772.53;5051023;28;20094;-68
2022/02/12 02:43:08;;;;;;;11.73;7.78;;;;;;;3.88;52.98;96753.03;5051116;28;20021;-68
2022/02/12 02:45:34;;;;;;;16.50;8.52;;;;;;;3.95;52.96;96763.50;5032611;28;20394;-69
2022/02/12 02:48:02;;;;;;;16.25;8.77;;;;;;;3.79;52.68;96745.69;5050469;28;20036;-68
2022/02/12 02:55:59;;;;;;;12.20;8.77;;;;;;;3.83;53.32;96757.34;5050796;28;20044;-68
2022/02/12 02:58:26;;;;;;;11.05;8.80;;;;;;;3.96;52.83;96783.53;5050317;28;20021;-68
2022/02/12 03:00:51;;;;;;;12.52;9.25;;;;;;;4.05;52.73;96798.00;5050374;28;20048;-68
2022/02/12 03:03:17;;;;;;;12.70;8.48;;;;;;;3.87;53.08;96769.84;5050460;28;20037;-69
2022/02/12 03:05:42;;;;;;;17.58;9.27;;;;;;;3.86;53.31;96767.44;5057381;28;20032;-68
2022/02/12 03:08:08;;;;;;;11.63;8.00;;;;;;;3.94;53.32;96782.91;5050274;28;20087;-69
2022/02/12 03:10:33;;;;;;;13.68;8.30;;;;;;;3.64;53.20;96736.31;5049935;28;20033;-68
2022/02/12 03:13:00;;;;;;;15.40;8.75;;;;;;;3.86;53.10;96749.00;5050380;28;20528;-68
2022/02/12 03:15:26;;;;;;;15.32;8.43;;;;;;;4.08;53.16;96788.84;5050236;28;20040;-68
2022/02/12 03:17:51;;;;;;;16.20;7.97;;;;;;;4.09;52.98;96788.59;5050409;28;20532;-68
2022/02/12 03:20:17;;;;;;;13.18;8.27;;;;;;;3.80;53.05;96739.38;5038098;28;20124;-68
2022/02/12 03:22:43;;;;;;;11.85;8.20;;;;;;;4.15;52.36;96777.19;5033191;28;20029;-68
2022/02/12 03:25:09;;;;;;;20.63;9.95;;;;;;;3.84;52.55;96737.91;5054235;28;20024;-68
2022/02/12 03:27:35;;;;;;;13.68;8.70;;;;;;;4.00;52.40;96774.16;5054183;28;20090;-68
2022/02/12 03:30:00;;;;;;;15.23;8.20;;;;;;;3.75;52.74;96762.94;5053837;28;20083;-68
2022/02/12 03:32:26;;;;;;;12.60;8.65;;;;;;;3.81;52.91;96769.94;5054118;28;20032;-68
2022/02/12 03:34:51;;;;;;;14.43;9.20;;;;;;;3.76;52.66;96752.16;5063991;28;20055;-68
2022/02/12 03:37:16;;;;;;;12.15;8.48;;;;;;;3.80;53.13;96745.44;5072768;28;20063;-69
2022/02/12 03:39:42;;;;;;;12.75;8.93;;;;;;;3.94;53.23;96771.59;5073160;28;20424;-68
2022/02/12 03:42:08;;;;;;;15.73;9.13;;;;;;;3.78;53.41;96725.63;5055832;28;20031;-68
2022/02/12 03:44:33;;;;;;;19.92;9.85;;;;;;;3.91;53.33;96755.22;5073957;28;20078;-68
2022/02/12 03:46:58;;;;;;;15.48;10.05;;;;;;;4.00;53.10;96750.47;5055998;28;20029;-69
2022/02/12 03:49:24;;;;;;;12.18;9.43;;;;;;;3.86;53.08;96733.22;5054347;28;20043;-68
2022/02/12 03:51:49;;;;;;;16.13;10.00;;;;;;;4.07;53.24;96758.25;5035410;28;20131;-69
2022/02/12 03:54:14;;;;;;;12.80;8.70;;;;;;;3.89;52.83;96728.31;5053725;28;20036;-68
2022/02/12 03:56:40;;;;;;;12.57;8.73;;;;;;;3.75;53.03;96700.56;5035944;28;20074;-68
2022/02/12 03:59:05;;;;;;;11.85;8.80;;;;;;;3.86;53.06;96730.59;5053368;28;20481;-69
2022/02/12 04:01:31;;;;;;;17.15;10.50;;;;;;;3.88;52.83;96739.06;5053598;28;20104;-68
2022/02/12 04:03:56;;;;;;;13.20;10.07;;;;;;;3.57;52.74;96671.63;5055194;28;20033;-68
2022/02/12 04:06:21;;;;;;;14.32;9.60;;;;;;;3.61;52.65;96681.50;5056445;28;20036;-68
2022/02/12 04:08:47;;;;;;;13.45;9.13;;;;;;;3.86;52.90;96717.44;5052718;28;20048;-68
2022/02/12 04:11:12;;;;;;;14.23;9.25;;;;;;;3.67;52.71;96690.31;5053132;28;20461;-68
2022/02/12 04:13:38;;;;;;;12.75;10.05;;;;;;;3.97;53.14;96742.19;5053277;28;20036;-69
2022/02/12 04:16:04;;;;;;;13.18;9.52;;;;;;;3.80;53.21;96713.84;5053259;28;20063;-68
2022/02/12 04:18:29;;;;;;;20.13;10.70;;;;;;;3.59;53.06;96670.41;5053086;28;20062;-68
2022/02/12 04:20:55;;;;;;;17.23;10.52;;;;;;;3.82;53.14;96709.16;5057068;28;20021;-69
2022/02/12 04:23:20;;;;;;;15.35;10.27;;;;;;;3.95;52.95;96726.63;5053145;28;20104;-68
2022/02/12 04:25:46;;;;;;;17.23;10.63;;;;;;;3.54;52.83;96654.47;5053258;28;20864;-68
2022/02/12 04:28:11;;;;;;;20.08;9.68;;;;;;;3.92;52.81;96719.97;5052974;28;20036;-68
2022/02/12 04:30:39;;;;;;;14.20;9.95;;;;;;;3.78;53.37;96705.38;5052759;28;20032;-68
2022/02/12 04:33:10;;;;;;;13.88;10.15;;;;;;;3.91;53.04;96714.94;5052809;28;20036;-68
2022/02/12 04:35:35;;;;;;;18.92;10.15;;;;;;;3.90;53.21;96718.59;5038582;28;20436;-68
2022/02/12 04:38:01;;;;;;;12.75;9.52;;;;;;;3.79;53.28;96708.81;5052542;28;20119;-68
2022/02/12 04:40:26;;;;;;;12.63;9.80;;;;;;;3.74;53.09;96700.78;5034581;28;20029;-68
2022/02/12 04:42:52;;;;;;;18.55;11.25;;;;;;;3.60;53.01;96685.16;5052710;28;20531;-68
2022/02/12 04:45:17;;;;;;;18.38;10.60;;;;;;;3.83;53.08;96725.75;5052699;28;20492;-68
2022/02/12 04:47:43;;;;;;;17.25;11.43;;;;;;;3.70;53.24;96710.16;5052760;28;20029;-69
2022/02/12 04:50:09;;;;;;;14.70;10.13;;;;;;;3.60;52.97;96684.34;5037186;28;20033;-68
2022/02/12 04:52:35;;;;;;;15.13;10.90;;;;;;;3.70;52.87;96697.00;5052274;28;20032;-68
2022/02/12 04:55:01;;;;;;;19.83;11.23;;;;;;;3.81;53.02;96718.09;5052482;28;20028;-68
2022/02/12 04:57:26;;;;;;;20.27;10.95;;;;;;;3.64;53.27;96696.84;5052696;28;20039;-68
2022/02/12 04:59:52;;;;;;;14.90;11.10;;;;;;;3.49;53.51;96661.44;5035166;28;20033;-68
2022/02/12 05:02:17;;;;;;;13.48;9.93;;;;;;;3.79;52.92;96707.00;5052347;28;20029;-68
2022/02/12 05:04:42;;;;;;;17.00;10.23;;;;;;;3.78;53.07;96700.09;5054824;28;20021;-68
2022/02/12 05:07:09;;;;;;;15.30;10.27;;;;;;;3.58;53.27;96679.31;5034326;28;20611;-68
2022/02/12 05:09:35;;;;;;;19.25;10.50;;;;;;;3.60;52.97;96690.41;5051782;28;20554;-68
2022/02/12 05:12:03;;;;;;;16.30;9.68;;;;;;;3.47;53.32;96661.63;5052070;28;20045;-68
2022/02/12 05:14:31;;;;;;;17.20;10.52;;;;;;;3.66;53.34;96696.63;5052123;28;20380;-68
2022/02/12 05:17:00;;;;;;;17.33;10.85;;;;;;;3.64;53.74;96688.16;5034048;28;20085;-68
2022/02/12 05:19:26;;;;;;;17.45;11.48;;;;;;;3.72;53.36;96694.94;5035714;28;20086;-68
2022/02/12 05:21:52;;;;;;;13.00;9.73;;;;;;;3.71;53.49;96688.06;5051654;28;20036;-68
2022/02/12 05:24:18;;;;;;;18.92;10.73;;;;;;;3.31;53.39;96622.78;5051749;28;20492;-68
2022/02/12 05:26:44;;;;;;;17.35;9.00;;;;;;;3.48;53.27;96647.47;5051824;28;20056;-68
2022/02/12 05:29:09;;;;;;;19.75;10.05;;;;;;;3.44;53.61;96654.19;5033301;28;20029;-68
2022/02/12 05:31:36;;;;;;;13.68;9.70;;;;;;;3.49;52.99;96641.19;5033754;28;20032;-68
2022/02/12 05:34:02;;;;;;;17.25;9.32;;;;;;;3.47;53.54;96635.31;5051598;28;20457;-68
2022/02/12 05:36:27;;;;;;;14.32;10.20;;;;;;;3.68;53.58;96673.50;5052873;28;20036;-68
2022/02/12 05:38:52;;;;;;;14.82;9.40;;;;;;;3.60;53.67;96655.41;5051728;28;20017;-68
2022/02/12 05:41:18;;;;;;;14.65;9.05;;;;;;;3.38;53.37;96624.31;5051977;28;20017;-68
2022/02/12 05:43:43;;;;;;;10.57;8.65;;;;;;;3.42;53.79;96637.03;5051749;28;20031;-69
2022/02/12 05:46:11;;;;;;;12.35;9.48;;;;;;;3.67;53.21;96682.44;5033292;28;20439;-68
2022/02/12 05:48:37;;;;;;;13.73;8.80;;;;;;;3.28;53.53;96612.72;5051203;28;20060;-68
2022/02/12 05:51:02;;;;;;;14.93;8.23;;;;;;;3.64;53.88;96677.63;5051904;28;20065;-68
2022/02/12 05:53:28;;;;;;;11.45;7.97;;;;;;;3.58;53.54;96663.53;5033472;28;20052;-68
2022/02/12 05:55:54;;;;;;;10.10;7.60;;;;;;;2.97;53.08;96559.31;5033571;28;20025;-68
2022/02/12 05:58:19;;;;;;;10.40;6.97;;;;;;;3.36;52.99;96631.63;5051318;28;20032;-68
2022/02/12 06:00:45;;;;;;;10.98;7.53;;;;;;;3.69;53.55;96682.22;5033002;28;20108;-69
2022/02/12 06:03:11;;;;;;;10.45;7.40;;;;;;;3.64;53.64;96682.91;5051285;28;20065;-68
2022/02/12 06:05:37;;;;;;;15.88;7.10;;;;;;;3.48;53.96;96646.66;5051146;28;20733;-68
2022/02/12 06:08:05;;;;;;;11.98;7.05;;;;;;;3.57;53.17;96646.13;5065048;28;20021;-68
2022/02/12 06:10:31;;;;;;;12.02;6.18;;;;;;;3.42;53.12;96635.19;5070598;28;20105;-68
2022/02/12 06:12:57;;;;;;;11.30;6.00;;;;;;;3.61;53.51;96678.06;5070924;28;20024;-68
2022/02/12 06:15:22;;;;;;;10.70;6.03;;;;;;;3.58;53.27;96655.66;5052939;28;20043;-69
2022/02/12 06:17:48;;;;;;;8.20;6.10;;;;;;;3.51;53.56;96657.53;5070867;28;20028;-69
2022/02/12 06:20:14;;;;;;;12.38;6.05;;;;;;;3.63;53.30;96658.41;5069896;28;20116;-69
2022/02/12 06:22:39;;;;;;;9.60;5.57;;;;;;;3.64;53.10;96657.38;5052315;28;20041;-70
2022/02/12 06:25:05;;;;;;;7.13;5.70;;;;;;;3.65;53.07;96661.63;5052836;28;20025;-69
2022/02/12 06:27:31;;;;;;;8.15;5.55;;;;;;;3.79;53.13;96670.16;5052660;28;20028;-69
2022/02/12 06:29:56;;;;;;;11.23;5.97;;;;;;;3.71;52.98;96659.13;5070355;28;20469;-68
2022/02/12 06:32:22;;;;;;;10.95;6.65;;;;;;;3.78;53.05;96662.44;5036049;28;20469;-68
2022/02/12 06:34:50;;;;;;;7.35;6.00;;;;;;;3.65;52.68;96635.31;5070011;28;20024;-68
2022/02/12 06:37:19;;;;;;;10.00;6.00;;;;;;;3.72;52.93;96647.56;5070693;28;20059;-69
2022/02/12 06:39:46;;;;;;;10.45;6.05;;;;;;;3.78;53.16;96657.19;5052218;28;20025;-69
2022/02/12 06:42:11;;;;;;;11.35;5.95;;;;;;;3.72;53.29;96655.47;5052583;28;20024;-69
2022/02/12 06:44:37;;;;;;;13.43;6.45;;;;;;;3.11;53.05;96544.94;5070591;28;20094;-68
2022/02/12 06:47:03;;;;;;;8.57;5.80;;;;;;;3.88;52.92;96673.25;5070334;28;20039;-68
2022/02/12 06:49:29;;;;;;;9.80;5.85;;;;;;;4.07;53.13;96668.75;5069769;28;20047;-69
2022/02/12 06:51:54;;;;;;;10.55;6.10;;;;;;;3.82;52.56;96611.78;5061678;28;20020;-68
2022/02/12 06:54:20;;;;;;;10.13;5.93;;;;;;;4.16;52.36;96649.75;5053669;28;20033;-67
2022/02/12 06:56:45;;;;;;;15.93;7.03;;;;;;;4.09;52.83;96635.06;5049759;28;20096;-67
2022/02/12 06:59:10;;;;;;;7.63;5.93;;;;;;;4.20;52.28;96649.28;5049342;28;20052;-67
2022/02/12 07:01:36;;;;;;;10.38;6.78;;;;;;;4.14;52.23;96636.00;5050219;28;20079;-67
2022/02/12 07:04:03;;;;;;;12.02;6.30;;;;;;;4.23;52.01;96640.94;5032469;28;20112;-68
2022/02/12 07:06:29;;;;;;;7.47;6.05;;;;;;;4.36;52.16;96646.03;5038301;28;20608;-67
2022/02/12 07:08:54;;;;;;;6.82;5.80;;;;;;;4.39;52.41;96648.97;5049776;28;20115;-68
2022/02/12 07:11:20;;;;;;;8.40;5.90;;;;;;;4.50;52.18;96643.94;5032266;28;20048;-68
2022/02/12 07:13:45;;;;;;;7.85;5.03;;;;;;;4.50;52.57;96647.38;5050418;28;20029;-72
2022/02/12 07:16:11;;;;;;;6.55;5.65;;;;;;;4.29;51.91;96592.63;5051204;28;20055;-70
2022/02/12 07:18:37;;;;;;;7.28;5.40;;;;;;;4.62;51.82;96623.69;5032474;28;20140;-72
2022/02/12 07:21:03;;;;;;;7.45;5.43;;;;;;;4.56;51.32;96609.59;5056585;28;20037;-72
2022/02/12 07:23:28;;;;;;;8.07;5.63;;;;;;;4.51;51.45;96609.50;5049888;28;20029;-68
2022/02/12 07:25:54;;;;;;;10.15;5.35;;;;;;;4.60;51.32;96605.44;5050024;28;20025;-72
2022/02/12 07:28:19;;;;;;;7.55;5.80;;;;;;;4.42;51.39;96560.78;5049975;28;20085;-69
2022/02/12 07:30:46;;;;;;;6.68;5.32;;;;;;;4.94;50.76;96635.47;5031311;28;20060;-73
2022/02/12 07:33:12;;;;;;;7.55;5.15;;;;;;;4.64;50.93;96598.69;5049832;28;20028;-71
2022/02/12 07:35:37;;;;;;;6.30;4.90;;;;;;;4.65;50.66;96558.13;5057300;28;20040;-77
2022/02/12 07:38:02;;;;;;;8.52;5.60;;;;;;;4.66;50.57;96578.19;5069759;28;20032;-71
2022/02/12 07:40:28;;;;;;;7.40;5.20;;;;;;;4.51;50.55;96533.06;5051568;28;20036;-74
2022/02/12 07:42:54;;;;;;;6.47;5.00;;;;;;;4.97;50.35;96585.97;5052024;28;20032;-69
2022/02/12 07:45:20;;;;;;;7.40;5.07;;;;;;;5.16;50.27;96619.03;5069688;28;20025;-68
2022/02/12 07:47:46;;;;;;;7.05;5.70;;;;;;;4.98;50.16;96569.88;5069776;28;20036;-68
2022/02/12 07:50:14;;;;;;;5.50;5.00;;;;;;;5.16;50.16;96598.72;5069246;28;20377;-68
2022/02/12 07:52:43;;;;;;;7.57;5.38;;;;;;;5.04;49.84;96562.88;5050020;28;20040;-68
2022/02/12 07:55:10;;;;;;;7.18;5.25;;;;;;;5.23;49.52;96593.34;5049777;28;20524;-68
2022/02/12 07:57:37;;;;;;;10.57;5.45;;;;;;;5.50;49.55;96622.63;5031873;28;20056;-71
2022/02/12 08:00:03;;;;;;;6.75;5.25;;;;;;;5.29;49.62;96587.13;5049407;28;20040;-70
2022/02/12 08:02:29;;;;;;;10.20;5.22;;;;;;;5.50;49.93;96619.97;5049757;28;20068;-69
2022/02/12 08:04:55;;;;;;;10.60;5.43;;;;;;;4.82;49.34;96523.16;5049920;28;20048;-72
2022/02/12 08:07:29;;;;;;;6.63;5.38;;;;;;;5.70;49.21;96604.50;5052688;28;20021;-70
2022/02/12 08:09:55;;;;;;;8.20;6.10;;;;;;;5.58;49.41;96602.94;5051891;28;20430;-69
2022/02/12 08:12:20;;;;;;;7.00;6.13;;;;;;;5.71;48.85;96600.84;5035734;28;20076;-69
2022/02/12 08:14:48;;;;;;;11.75;6.45;;;;;;;5.81;49.26;96584.38;5053147;28;20040;-68
2022/02/12 08:17:15;;;;;;;7.88;6.72;;;;;;;5.69;49.40;96587.06;5053245;28;20029;-72
2022/02/12 08:19:41;;;;;;;14.48;7.10;;;;;;;5.35;49.74;96561.63;5052767;28;20108;-70
2022/02/12 08:22:07;;;;;;;9.40;6.43;;;;;;;5.64;50.16;96594.91;5055755;28;20215;-70
2022/02/12 08:24:33;;;;;;;8.98;6.88;;;;;;;5.86;50.04;96586.31;5053026;28;20029;-67
2022/02/12 08:26:59;;;;;;;10.82;6.30;;;;;;;5.30;51.03;96577.38;5052938;28;20523;-71
2022/02/12 08:29:28;;;;;;;9.73;6.68;;;;;;;5.86;49.71;96586.31;5052450;28;20052;-70
2022/02/12 08:32:03;;;;;;;6.50;5.82;;;;;;;5.61;50.28;96568.16;5052767;28;20021;-72
2022/02/12 08:34:29;;;;;;;9.07;5.80;;;;;;;5.82;49.90;96590.44;5053294;28;20096;-70
2022/02/12 08:36:56;;;;;;;8.10;6.13;;;;;;;5.89;49.29;96575.28;5068544;28;20021;-75
2022/02/12 08:39:22;;;;;;;8.85;6.20;;;;;;;5.58;49.25;96526.41;5054728;28;20035;-72
2022/02/12 08:41:49;;;;;;;7.30;6.55;;;;;;;5.86;49.52;96581.81;5072490;28;20074;-69
2022/02/12 08:44:15;;;;;;;7.10;5.75;;;;;;;5.74;49.71;96586.38;5072616;28;20028;-67
2022/02/12 08:46:40;;;;;;;7.85;5.45;;;;;;;5.91;49.16;96530.94;5072698;28;20052;-67
2022/02/12 08:49:06;;;;;;;7.82;5.45;;;;;;;6.00;48.70;96524.25;5054051;28;20064;-67
2022/02/12 08:51:42;;;;;;;8.15;5.32;;;;;;;6.29;49.27;96571.69;5061552;28;20035;-71
2022/02/12 08:54:11;;;;;;;7.78;5.35;;;;;;;5.96;48.79;96510.72;5034333;28;20111;-68
2022/02/12 08:56:38;;;;;;;6.93;4.80;;;;;;;6.17;48.56;96514.44;5034318;28;20021;-69
2022/02/12 08:59:05;;;;;;;6.60;4.88;;;;;;;6.60;48.31;96571.09;5051954;28;20037;-68
2022/02/12 09:01:32;;;;;;;8.20;4.90;;;;;;;6.76;48.00;96558.91;5052243;28;20373;-68
2022/02/12 09:03:58;;;;;;;5.28;4.75;;;;;;;6.98;46.56;96556.25;5034285;28;20054;-71
2022/02/12 09:06:24;;;;;;;6.93;4.60;;;;;;;7.17;46.93;96560.19;5053434;28;20028;-70
2022/02/12 09:08:51;;;;;;;7.32;4.38;;;;;;;7.04;46.72;96545.47;5051583;28;20033;-70
2022/02/12 09:11:22;;;;;;;8.25;4.63;;;;;;;7.04;46.42;96555.28;5051959;28;20017;-71
2022/02/12 09:13:49;;;;;;;5.17;4.10;;;;;;;7.02;46.26;96544.94;5051967;28;20075;-69
2022/02/12 09:16:16;;;;;;;6.07;3.85;;;;;;;7.07;46.28;96548.69;5051745;28;20025;-70
2022/02/12 09:18:42;;;;;;;6.70;4.63;;;;;;;6.67;45.98;96502.19;5051762;28;20029;-71
2022/02/12 09:21:07;;;;;;;6.78;4.45;;;;;;;6.87;46.24;96528.88;5033627;28;20033;-72
2022/02/12 09:23:33;;;;;;;4.28;3.72;;;;;;;6.95;46.12;96536.38;5061791;28;20362;-70
2022/02/12 09:25:58;;;;;;;5.43;3.97;;;;;;;7.26;45.66;96516.34;5053925;28;20074;-71
2022/02/12 09:28:24;;;;;;;5.00;4.00;;;;;;;7.22;45.56;96511.81;5053348;28;20067;-70
2022/02/12 09:30:50;;;;;;;6.53;4.18;;;;;;;7.20;44.96;96522.63;5054089;28;20048;-70
2022/02/12 09:33:16;;;;;;;4.50;3.28;;;;;;;7.19;44.63;96512.31;5054114;28;20031;-70
2022/02/12 09:35:41;;;;;;;4.82;3.80;;;;;;;7.55;44.05;96510.81;5068703;28;20100;-70
2022/02/12 09:38:07;;;;;;;4.22;3.25;;;;;;;7.72;44.78;96519.44;5051392;28;20017;-67
2022/02/12 09:40:32;;;;;;;8.15;3.65;;;;;;;7.71;43.87;96512.56;5051224;28;20388;-72
2022/02/12 09:43:01;;;;;;;6.40;3.58;;;;;;;7.43;43.47;96520.78;5033941;28;20495;-68
2022/02/12 09:45:35;;;;;;;4.95;3.60;;;;;;;7.48;43.46;96507.59;5051514;28;20026;-72
2022/02/12 09:48:02;;;;;;;6.25;3.42;;;;;;;6.72;44.64;96471.31;5051411;28;20037;-70
2022/02/12 09:50:28;;;;;;;4.68;3.15;;;;;;;6.78;44.44;96458.94;5051702;28;20044;-71
2022/02/12 09:52:55;;;;;;;5.78;3.15;;;;;;;6.98;44.84;96482.19;5040133;28;20052;-74
2022/02/12 09:55:22;;;;;;;3.53;3.22;;;;;;;6.83;43.57;96448.44;5050136;28;20024;-71
2022/02/12 09:57:47;;;;;;;5.18;3.03;;;;;;;7.34;43.53;96477.28;5071025;28;20058;-70
2022/02/12 10:00:17;;;;;;;4.65;2.97;;;;;;;7.67;43.85;96516.75;5070650;28;20037;-74
2022/02/12 10:02:44;;;;;;;3.55;2.85;;;;;;;7.70;43.08;96487.13;5071303;28;20025;-72
2022/02/12 10:05:26;;;;;;;5.60;2.85;;;;;;;7.35;44.45;96510.63;5071206;28;20126;-73
2022/02/12 10:08:09;;;;;;;4.97;3.30;;;;;;;7.50;43.04;96468.41;5051031;28;20111;-73
2022/02/12 10:10:36;;;;;;;5.43;2.70;;;;;;;7.85;42.22;96509.50;5050718;28;20028;-73
2022/02/12 10:13:12;;;;;;;4.38;2.72;;;;;;;8.01;42.00;96490.00;5051258;28;20033;-72
2022/02/12 10:15:40;;;;;;;5.65;2.97;;;;;;;7.97;41.75;96483.63;5033951;28;20017;-75
2022/02/12 10:18:05;;;;;;;4.88;2.78;;;;;;;7.73;41.31;96501.72;5051710;28;20524;-75
2022/02/12 10:20:35;;;;;;;3.78;2.80;;;;;;;7.98;41.21;96486.00;5051725;28;20053;-77
2022/02/12 10:23:12;;;;;;;5.32;2.97;;;;;;;8.01;41.53;96492.66;5054245;28;20472;-77
2022/02/12 10:25:40;;;;;;;4.60;2.45;;;;;;;7.78;41.35;96494.63;5071625;28;20081;-76
2022/02/12 10:28:07;;;;;;;3.50;2.33;;;;;;;7.50;41.20;96484.31;5070989;28;20141;-76
2022/02/12 10:30:36;;;;;;;5.20;2.55;;;;;;;8.01;39.99;96469.63;5070914;28;20120;-77
2022/02/12 10:33:05;;;;;;;4.43;2.63;;;;;;;7.97;40.31;96483.63;5072368;28;20028;-79
2022/02/12 10:35:32;;;;;;;3.28;2.13;;;;;;;8.21;39.92;96474.25;5055006;28;20024;-78
2022/02/12 10:37:59;;;;;;;2.20;2.00;;;;;;;7.93;39.32;96474.56;5046265;28;20439;-79
2022/02/12 10:40:27;;;;;;;5.05;2.17;;;;;;;8.13;39.27;96472.06;5054978;28;20029;-79
2022/02/12 10:42:54;;;;;;;6.90;2.00;;;;;;;8.30;38.70;96477.22;5052614;28;20479;-78
2022/02/12 10:45:20;;;;;;;2.47;2.00;;;;;;;7.88;38.67;96466.59;5034549;28;20025;-80
2022/02/12 10:47:47;;;;;;;3.42;2.10;;;;;;;8.03;38.66;96466.69;5035115;28;20116;-82
2022/02/12 10:50:14;;;;;;;2.65;1.98;;;;;;;7.57;38.52;96455.75;5051241;28;20055;-77
2022/02/12 10:52:51;;;;;;;3.33;1.90;;;;;;;8.40;38.06;96445.50;5056549;28;20028;-77
2022/02/12 10:55:38;;;;;;;2.67;1.70;;;;;;;8.68;37.22;96441.63;5033181;28;20083;-75
2022/02/12 10:58:11;;;;;;;3.38;1.90;;;;;;;8.21;37.48;96446.94;5033001;28;20029;-75
2022/02/12 11:00:39;;;;;;;3.50;2.00;;;;;;;8.84;37.00;96443.28;5050002;28;20024;-70
2022/02/12 11:03:08;;;;;;;4.40;1.90;;;;;;;8.77;37.42;96439.28;5050413;28;20025;-72
2022/02/12 11:05:35;;;;;;;2.60;1.55;;;;;;;8.27;35.98;96436.09;5050320;28;20029;-71
2022/02/12 11:08:02;;;;;;;4.05;1.70;;;;;;;8.60;35.57;96418.28;5054986;28;20017;-72
2022/02/12 11:10:28;;;;;;;1.50;1.40;;;;;;;8.90;35.33;96422.06;5049797;28;20024;-72
2022/02/12 11:12:54;;;;;;;2.28;1.77;;;;;;;8.41;36.22;96409.19;5050255;28;20048;-71
2022/02/12 11:15:22;;;;;;;2.92;1.52;;;;;;;8.90;35.49;96396.31;5050482;28;20025;-72
2022/02/12 11:17:48;;;;;;;2.95;1.90;;;;;;;9.07;34.93;96399.56;5050122;28;20466;-75
2022/02/12 11:20:21;;;;;;;3.15;1.85;;;;;;;8.39;36.14;96404.09;5050346;28;20032;-75
2022/02/12 11:22:50;;;;;;;2.78;1.80;;;;;;;8.39;35.15;96390.06;5037189;28;20332;-72
2022/02/12 11:25:40;;;;;;;3.75;1.58;;;;;;;8.67;35.75;96392.28;5050148;28;20025;-73
2022/02/12 11:28:11;;;;;;;3.83;2.15;;;;;;;8.83;35.64;96380.66;5019820;28;20044;-73
2022/02/12 11:30:39;;;;;;;5.23;1.87;;;;;;;8.64;35.57;96394.66;5049544;28;20056;-72
2022/02/12 11:33:19;;;;;;;1.80;1.60;;;;;;;8.56;35.77;96385.38;5032236;28;20017;-72
2022/02/12 11:36:10;;;;;;;3.05;2.05;;;;;;;9.02;35.75;96385.50;5032324;28;20556;-72
2022/02/12 11:38:37;;;;;;;5.43;2.22;;;;;;;8.33;37.17;96381.25;5049524;28;20036;-75
2022/02/12 11:41:22;;;;;;;2.50;1.73;;;;;;;9.11;35.48;96384.72;5032073;28;20033;-72